createdAt,value
2022-08-03T00:00:51.292Z,81.71
2022-08-03T00:01:51.263Z,81.75
2022-08-03T00:02:51.321Z,81.71
2022-08-03T00:03:51.276Z,81.41
2022-08-03T00:04:51.223Z,81.35
2022-08-03T00:06:04.870Z,81.35
2022-08-03T00:06:52.203Z,81.45
2022-08-03T00:07:51.195Z,82.01
2022-08-03T00:08:51.187Z,81.81
2022-08-03T00:09:51.193Z,81.61
2022-08-03T00:10:51.161Z,81.75
2022-08-03T00:11:51.174Z,81.41
2022-08-03T00:12:51.134Z,81.65
2022-08-03T00:13:51.119Z,81.55
2022-08-03T00:14:51.116Z,82.35
2022-08-03T00:15:51.101Z,81.95
2022-08-03T00:16:51.114Z,82.96
2022-08-03T00:17:53.100Z,82.96
2022-08-03T00:18:51.071Z,82.70
2022-08-03T00:19:51.081Z,82.86
2022-08-03T00:20:51.046Z,82.76
2022-08-03T00:21:51.035Z,82.70
2022-08-03T00:22:51.023Z,82.56
2022-08-03T00:23:52.873Z,83.40
2022-08-03T00:24:51.029Z,82.59
2022-08-03T00:25:50.982Z,82.56
2022-08-03T00:26:50.976Z,82.70
2022-08-03T00:27:50.966Z,83.00
2022-08-03T00:28:50.994Z,83.30
2022-08-03T00:29:59.249Z,82.90
2022-08-03T00:30:51.933Z,83.40
2022-08-03T00:31:52.530Z,83.50
2022-08-03T00:32:51.904Z,83.30
2022-08-03T00:33:58.982Z,83.10
2022-08-03T00:34:57.952Z,82.90
2022-08-03T00:35:51.878Z,83.10
2022-08-03T00:36:50.863Z,83.24
2022-08-03T00:37:50.851Z,83.00
2022-08-03T00:38:50.843Z,83.54
2022-08-03T00:39:50.855Z,83.95
2022-08-03T00:40:50.823Z,83.95
2022-08-03T00:41:50.807Z,84.05
2022-08-03T00:42:50.798Z,83.91
2022-08-03T00:43:50.808Z,83.54
2022-08-03T00:44:50.792Z,84.05
2022-08-03T00:45:50.792Z,83.95
2022-08-03T00:46:50.780Z,83.54
2022-08-03T00:47:50.741Z,83.44
2022-08-03T00:48:50.733Z,83.34
2022-08-03T00:49:50.714Z,83.24
2022-08-03T00:50:50.709Z,83.64
2022-08-03T00:51:50.720Z,83.54
2022-08-03T00:52:50.688Z,83.74
2022-08-03T00:53:50.679Z,83.34
2022-08-03T00:54:50.684Z,84.05
2022-08-03T00:55:50.671Z,83.74
2022-08-03T00:56:59.693Z,83.74
2022-08-03T00:57:51.622Z,84.15
2022-08-03T00:58:50.618Z,83.84
2022-08-03T00:59:50.627Z,83.88
2022-08-03T01:00:50.671Z,84.05
2022-08-03T01:01:50.691Z,84.25
2022-08-03T01:02:50.575Z,84.95
2022-08-03T01:03:50.554Z,84.19
2022-08-03T01:04:50.574Z,83.95
2022-08-03T01:05:50.558Z,84.09
2022-08-03T01:06:50.523Z,84.15
2022-08-03T01:07:50.514Z,84.15
2022-08-03T01:08:50.505Z,84.15
2022-08-03T01:09:50.513Z,84.29
2022-08-03T01:10:50.482Z,84.29
2022-08-03T01:12:00.048Z,84.25
2022-08-03T01:12:51.460Z,84.15
2022-08-03T01:14:01.226Z,84.25
2022-08-03T01:14:51.434Z,84.25
2022-08-03T01:15:50.430Z,83.98
2022-08-03T01:16:50.441Z,84.19
2022-08-03T01:17:50.403Z,84.29
2022-08-03T01:18:50.389Z,84.09
2022-08-03T01:19:50.379Z,84.25
2022-08-03T01:20:50.365Z,84.19
2022-08-03T01:21:50.383Z,83.95
2022-08-03T01:22:50.352Z,83.98
2022-08-03T01:23:50.334Z,83.98
2022-08-03T01:24:50.325Z,83.68
2022-08-03T01:25:54.273Z,84.19
2022-08-03T01:26:50.300Z,83.78
2022-08-03T01:27:50.290Z,84.09
2022-08-03T01:28:50.283Z,84.09
2022-08-03T01:29:50.271Z,84.39
2022-08-03T01:30:50.283Z,84.19
2022-08-03T01:32:59.231Z,84.29
2022-08-03T01:32:59.512Z,84.29
2022-08-03T01:33:51.222Z,83.98
2022-08-03T01:34:50.210Z,84.09
2022-08-03T01:35:50.206Z,83.98
2022-08-03T01:36:50.212Z,84.19
2022-08-03T01:37:50.181Z,83.38
2022-08-03T01:38:50.192Z,83.88
2022-08-03T01:39:50.156Z,83.88
2022-08-03T01:40:50.142Z,83.98
2022-08-03T01:41:50.132Z,84.25
2022-08-03T01:42:50.120Z,84.19
2022-08-03T01:43:55.357Z,84.29
2022-08-03T01:44:51.095Z,84.49
2022-08-03T01:45:50.100Z,84.49
2022-08-03T01:46:50.076Z,84.99
2022-08-03T01:47:50.064Z,84.99
2022-08-03T01:48:50.072Z,84.19
2022-08-03T01:49:50.104Z,84.73
2022-08-03T01:50:50.034Z,84.79
2022-08-03T01:51:58.421Z,85.14
2022-08-03T01:52:51.004Z,85.34
2022-08-03T01:53:50.022Z,84.83
2022-08-03T01:54:49.985Z,84.63
2022-08-03T01:55:49.971Z,84.63
2022-08-03T01:56:49.983Z,84.83
2022-08-03T01:58:05.316Z,84.93
2022-08-03T01:58:50.961Z,85.03
2022-08-03T01:59:49.955Z,85.14
2022-08-03T02:00:50.020Z,84.73
2022-08-03T02:02:27.920Z,85.03
2022-08-03T02:02:50.935Z,85.08
2022-08-03T02:03:59.668Z,85.03
2022-08-03T02:04:50.876Z,85.74
2022-08-03T02:05:54.119Z,85.14
2022-08-03T02:07:01.891Z,85.03
2022-08-03T02:07:50.838Z,85.17
2022-08-03T02:08:49.846Z,85.38
2022-08-03T02:09:49.811Z,85.28
2022-08-03T02:10:49.804Z,85.78
2022-08-03T02:11:49.794Z,86.29
2022-08-03T02:12:51.248Z,86.79
2022-08-03T02:13:49.774Z,87.10
2022-08-03T02:14:49.757Z,86.59
2022-08-03T02:15:49.750Z,86.39
2022-08-03T02:16:49.732Z,86.29
2022-08-03T02:17:49.859Z,86.02
2022-08-03T02:18:49.879Z,86.22
2022-08-03T02:19:49.706Z,86.33
2022-08-03T02:20:49.691Z,86.53
2022-08-03T02:21:57.372Z,86.33
2022-08-03T02:22:50.688Z,86.63
2022-08-03T02:23:49.660Z,87.13
2022-08-03T02:24:51.155Z,86.83
2022-08-03T02:25:49.634Z,86.73
2022-08-03T02:26:49.629Z,86.93
2022-08-03T02:27:49.616Z,87.13
2022-08-03T02:28:49.629Z,86.63
2022-08-03T02:29:49.594Z,86.53
2022-08-03T02:30:51.868Z,86.43
2022-08-03T02:31:49.582Z,86.22
2022-08-03T02:32:49.559Z,86.73
2022-08-03T02:33:49.570Z,86.83
2022-08-03T02:34:49.536Z,87.13
2022-08-03T02:35:49.552Z,87.13
2022-08-03T02:36:49.512Z,86.73
2022-08-03T02:37:49.748Z,87.44
2022-08-03T02:38:49.513Z,87.13
2022-08-03T02:39:49.474Z,87.44
2022-08-03T02:40:49.466Z,87.13
2022-08-03T02:41:49.451Z,87.04
2022-08-03T02:42:49.454Z,86.73
2022-08-03T02:44:05.449Z,86.83
2022-08-03T02:44:50.442Z,86.63
2022-08-03T02:45:49.410Z,86.93
2022-08-03T02:46:49.398Z,87.13
2022-08-03T02:47:54.541Z,86.83
2022-08-03T02:48:50.401Z,86.83
2022-08-03T02:49:51.665Z,87.28
2022-08-03T02:50:49.352Z,87.48
2022-08-03T02:51:49.343Z,87.28
2022-08-03T02:52:49.353Z,87.48
2022-08-03T02:53:49.346Z,87.58
2022-08-03T02:54:49.314Z,87.68
2022-08-03T02:55:49.303Z,87.68
2022-08-03T02:56:49.286Z,87.58
2022-08-03T02:57:49.270Z,87.48
2022-08-03T02:58:49.287Z,87.58
2022-08-03T02:59:49.255Z,87.68
2022-08-03T03:00:49.288Z,87.58
2022-08-03T03:01:49.259Z,87.68
2022-08-03T03:02:49.211Z,86.91
2022-08-03T03:03:49.212Z,87.12
2022-08-03T03:05:52.448Z,87.58
2022-08-03T03:05:52.989Z,87.48
2022-08-03T03:06:50.168Z,87.48
2022-08-03T03:07:51.658Z,87.62
2022-08-03T03:08:49.176Z,87.42
2022-08-03T03:09:49.136Z,87.48
2022-08-03T03:10:49.155Z,88.02
2022-08-03T03:11:50.137Z,88.43
2022-08-03T03:12:49.102Z,88.33
2022-08-03T03:13:49.095Z,88.33
2022-08-03T03:14:49.084Z,88.94
2022-08-03T03:15:49.074Z,88.84
2022-08-03T03:16:51.884Z,89.39
2022-08-03T03:17:50.073Z,89.14
2022-08-03T03:18:49.036Z,89.28
2022-08-03T03:19:49.027Z,89.28
2022-08-03T03:20:49.014Z,89.18
2022-08-03T03:21:49.005Z,89.08
2022-08-03T03:22:49.014Z,89.48
2022-08-03T03:23:48.982Z,90.09
2022-08-03T03:24:48.973Z,89.69
2022-08-03T03:25:48.962Z,89.99
2022-08-03T03:26:48.942Z,89.99
2022-08-03T03:27:49.453Z,89.89
2022-08-03T03:28:48.924Z,90.14
2022-08-03T03:29:48.919Z,90.24
2022-08-03T03:30:52.846Z,90.09
2022-08-03T03:31:48.891Z,90.34
2022-08-03T03:32:48.902Z,90.24
2022-08-03T03:33:48.896Z,90.24
2022-08-03T03:34:48.855Z,89.94
2022-08-03T03:35:48.850Z,89.53
2022-08-03T03:36:48.850Z,89.63
2022-08-03T03:37:48.824Z,90.03
2022-08-03T03:38:48.842Z,88.92
2022-08-03T03:39:48.804Z,89.02
2022-08-03T03:40:48.794Z,89.23
2022-08-03T03:41:48.787Z,89.02
2022-08-03T03:42:48.767Z,88.92
2022-08-03T03:43:48.782Z,88.92
2022-08-03T03:44:48.745Z,89.12
2022-08-03T03:45:48.733Z,89.63
2022-08-03T03:46:48.726Z,89.89
2022-08-03T03:47:48.723Z,89.83
2022-08-03T03:48:48.722Z,89.83
2022-08-03T03:49:48.691Z,89.12
2022-08-03T03:50:48.695Z,89.53
2022-08-03T03:51:48.679Z,88.82
2022-08-03T03:52:48.655Z,89.02
2022-08-03T03:53:48.674Z,89.28
2022-08-03T03:54:48.633Z,89.69
2022-08-03T03:55:58.984Z,89.18
2022-08-03T03:56:49.606Z,89.59
2022-08-03T03:57:48.596Z,89.99
2022-08-03T03:58:48.595Z,88.98
2022-08-03T03:59:48.602Z,89.08
2022-08-03T04:00:48.600Z,89.08
2022-08-03T04:01:48.552Z,89.08
2022-08-03T04:02:49.549Z,89.69
2022-08-03T04:03:48.555Z,89.69
2022-08-03T04:04:48.518Z,89.12
2022-08-03T04:05:48.509Z,89.48
2022-08-03T04:06:48.497Z,89.48
2022-08-03T04:07:48.520Z,89.48
2022-08-03T04:08:49.375Z,89.08
2022-08-03T04:09:48.465Z,89.99
2022-08-03T04:10:48.473Z,90.50
2022-08-03T04:11:48.439Z,90.20
2022-08-03T04:12:50.271Z,90.09
2022-08-03T04:13:48.444Z,90.50
2022-08-03T04:14:48.400Z,90.91
2022-08-03T04:15:48.394Z,90.40
2022-08-03T04:16:48.382Z,90.80
2022-08-03T04:17:48.371Z,91.00
2022-08-03T04:18:48.386Z,90.80
2022-08-03T04:19:48.350Z,91.00
2022-08-03T04:20:48.358Z,90.91
2022-08-03T04:21:48.321Z,90.80
2022-08-03T04:22:48.314Z,90.40
2022-08-03T04:23:48.328Z,90.40
2022-08-03T04:24:48.319Z,90.60
2022-08-03T04:25:48.277Z,90.70
2022-08-03T04:26:52.327Z,90.40
2022-08-03T04:28:20.930Z,90.80
2022-08-03T04:28:49.247Z,90.40
2022-08-03T04:29:48.711Z,89.99
2022-08-03T04:30:48.384Z,90.16
2022-08-03T04:31:48.236Z,89.99
2022-08-03T04:32:48.197Z,90.09
2022-08-03T04:33:48.186Z,90.16
2022-08-03T04:34:48.180Z,90.16
2022-08-03T04:35:54.728Z,90.16
2022-08-03T04:36:49.185Z,89.54
2022-08-03T04:37:48.169Z,89.65
2022-08-03T04:38:48.131Z,89.04
2022-08-03T04:39:48.122Z,89.34
2022-08-03T04:40:48.114Z,89.04
2022-08-03T04:42:06.994Z,89.34
2022-08-03T04:42:49.113Z,88.90
2022-08-03T04:43:48.079Z,88.90
2022-08-03T04:44:48.072Z,88.70
2022-08-03T04:45:48.054Z,88.29
2022-08-03T04:46:50.517Z,88.39
2022-08-03T04:47:48.058Z,88.59
2022-08-03T04:48:48.041Z,88.90
2022-08-03T04:49:48.010Z,89.00
2022-08-03T04:50:48.002Z,88.29
2022-08-03T04:51:47.990Z,88.35
2022-08-03T04:52:48.005Z,88.25
2022-08-03T04:53:47.989Z,88.15
2022-08-03T04:54:50.633Z,88.10
2022-08-03T04:55:47.964Z,88.35
2022-08-03T04:56:47.957Z,88.31
2022-08-03T04:57:47.920Z,88.31
2022-08-03T04:58:47.930Z,88.71
2022-08-03T04:59:47.896Z,88.81
2022-08-03T05:00:47.909Z,87.81
2022-08-03T05:01:47.984Z,87.60
2022-08-03T05:02:47.865Z,87.19
2022-08-03T05:03:47.850Z,86.19
2022-08-03T05:04:47.842Z,86.55
2022-08-03T05:05:50.166Z,86.45
2022-08-03T05:06:48.415Z,86.04
2022-08-03T05:07:48.834Z,86.35
2022-08-03T05:08:48.884Z,86.21
2022-08-03T05:09:50.644Z,85.54
2022-08-03T05:10:48.774Z,86.21
2022-08-03T05:11:47.764Z,85.70
2022-08-03T05:12:47.751Z,86.21
2022-08-03T05:13:47.761Z,86.30
2022-08-03T05:14:47.729Z,85.40
2022-08-03T05:15:47.718Z,85.76
2022-08-03T05:16:47.708Z,85.36
2022-08-03T05:17:47.696Z,84.95
2022-08-03T05:18:47.715Z,85.25
2022-08-03T05:19:47.674Z,85.16
2022-08-03T05:20:47.680Z,84.91
2022-08-03T05:21:52.548Z,84.91
2022-08-03T05:22:48.635Z,85.11
2022-08-03T05:23:47.665Z,84.91
2022-08-03T05:24:47.623Z,84.81
2022-08-03T05:25:49.990Z,84.97
2022-08-03T05:26:47.596Z,84.83
2022-08-03T05:27:47.581Z,84.53
2022-08-03T05:28:50.551Z,84.88
2022-08-03T05:29:47.564Z,84.63
2022-08-03T05:30:47.551Z,84.23
2022-08-03T05:31:47.564Z,83.32
2022-08-03T05:32:47.537Z,83.72
2022-08-03T05:33:47.516Z,83.08
2022-08-03T05:34:47.504Z,82.64
2022-08-03T05:35:57.366Z,81.59
2022-08-03T05:36:48.502Z,81.19
2022-08-03T05:37:54.777Z,80.99
2022-08-03T05:38:48.454Z,81.09
2022-08-03T05:39:47.469Z,80.45
2022-08-03T05:40:57.593Z,79.74
2022-08-03T05:41:48.425Z,80.05
2022-08-03T05:42:47.651Z,79.85
2022-08-03T05:43:47.429Z,79.94
2022-08-03T05:44:47.391Z,80.15
2022-08-03T05:45:47.383Z,80.45
2022-08-03T05:46:48.369Z,80.11
2022-08-03T05:47:47.380Z,78.90
2022-08-03T05:48:47.351Z,78.46
2022-08-03T05:49:47.359Z,78.22
2022-08-03T05:50:47.324Z,77.79
2022-08-03T05:51:47.310Z,76.54
2022-08-03T05:52:48.304Z,75.01
2022-08-03T05:53:47.286Z,73.43
2022-08-03T05:54:56.764Z,72.50
2022-08-03T05:55:51.352Z,72.46
2022-08-03T05:56:48.255Z,72.03
2022-08-03T05:57:47.244Z,72.53
2022-08-03T05:58:47.719Z,71.33
2022-08-03T05:59:53.839Z,71.99
2022-08-03T06:00:48.210Z,71.29
2022-08-03T06:01:47.250Z,71.29
2022-08-03T06:02:47.192Z,69.26
2022-08-03T06:03:47.178Z,69.32
2022-08-03T06:04:47.190Z,68.93
2022-08-03T06:05:54.959Z,67.99
2022-08-03T06:06:48.144Z,67.86
2022-08-03T06:07:47.161Z,65.23
2022-08-03T06:08:47.123Z,65.53
2022-08-03T06:10:35.020Z,65.73
2022-08-03T06:10:48.125Z,67.00
2022-08-03T06:11:47.090Z,67.36
2022-08-03T06:12:47.079Z,64.71
2022-08-03T06:13:47.088Z,64.81
2022-08-03T06:14:47.058Z,65.31
2022-08-03T06:15:47.039Z,66.67
2022-08-03T06:16:47.036Z,67.36
2022-08-03T06:17:47.014Z,67.70
2022-08-03T06:18:47.038Z,67.93
2022-08-03T06:19:46.999Z,67.93
2022-08-03T06:20:47.167Z,67.43
2022-08-03T06:21:47.000Z,68.60
2022-08-03T06:22:50.429Z,68.03
2022-08-03T06:23:52.621Z,67.53
2022-08-03T06:24:48.183Z,67.63
2022-08-03T06:25:47.945Z,68.96
2022-08-03T06:26:46.920Z,69.82
2022-08-03T06:27:46.912Z,70.62
2022-08-03T06:28:53.099Z,69.20
2022-08-03T06:29:47.910Z,67.50
2022-08-03T06:30:46.874Z,67.60
2022-08-03T06:31:46.865Z,66.97
2022-08-03T06:32:51.952Z,65.57
2022-08-03T06:34:31.268Z,63.68
2022-08-03T06:34:47.828Z,63.35
2022-08-03T06:35:46.845Z,64.04
2022-08-03T06:36:46.832Z,65.11
2022-08-03T06:37:46.790Z,66.91
2022-08-03T06:38:46.786Z,63.52
2022-08-03T06:39:46.823Z,65.71
2022-08-03T06:40:46.787Z,65.58
2022-08-03T06:41:46.868Z,64.39
2022-08-03T06:42:46.740Z,63.89
2022-08-03T06:44:02.670Z,63.56
2022-08-03T06:44:47.720Z,63.56
2022-08-03T06:45:47.679Z,62.16
2022-08-03T06:46:46.700Z,62.79
2022-08-03T06:47:46.686Z,63.85
2022-08-03T06:48:46.674Z,63.95
2022-08-03T06:50:16.297Z,63.46
2022-08-03T06:50:47.656Z,62.93
2022-08-03T06:52:04.476Z,62.13
2022-08-03T06:52:47.659Z,61.64
2022-08-03T06:53:46.625Z,62.83
2022-08-03T06:54:46.609Z,61.34
2022-08-03T06:55:49.048Z,62.53
2022-08-03T06:56:47.592Z,61.01
2022-08-03T06:57:46.577Z,62.80
2022-08-03T06:58:46.562Z,60.19
2022-08-03T07:00:09.251Z,60.26
2022-08-03T07:00:47.543Z,59.86
2022-08-03T07:01:46.565Z,59.23
2022-08-03T07:02:46.551Z,60.03
2022-08-03T07:03:48.403Z,60.75
2022-08-03T07:04:47.503Z,61.05
2022-08-03T07:05:46.494Z,59.27
2022-08-03T07:06:46.502Z,60.16
2022-08-03T07:07:46.464Z,60.26
2022-08-03T07:08:49.492Z,60.03
2022-08-03T07:09:57.138Z,61.62
2022-08-03T07:10:47.433Z,58.42
2022-08-03T07:11:46.439Z,57.82
2022-08-03T07:12:56.174Z,57.32
2022-08-03T07:13:47.397Z,56.90
2022-08-03T07:14:46.388Z,56.65
2022-08-03T07:15:55.583Z,56.25
2022-08-03T07:16:47.387Z,55.83
2022-08-03T07:17:46.356Z,54.91
2022-08-03T07:18:46.345Z,54.32
2022-08-03T07:19:46.333Z,54.52
2022-08-03T07:20:46.318Z,55.30
2022-08-03T07:21:46.311Z,54.10
2022-08-03T07:22:46.324Z,54.12
2022-08-03T07:23:46.349Z,56.89
2022-08-03T07:24:46.276Z,56.27
2022-08-03T07:25:46.265Z,53.75
2022-08-03T07:26:46.279Z,53.94
2022-08-03T07:27:51.414Z,53.55
2022-08-03T07:28:47.234Z,54.88
2022-08-03T07:29:46.225Z,54.58
2022-08-03T07:30:46.237Z,53.89
2022-08-03T07:31:46.234Z,52.70
2022-08-03T07:32:50.386Z,52.51
2022-08-03T07:33:46.184Z,51.92
2022-08-03T07:34:46.168Z,52.19
2022-08-03T07:35:46.156Z,52.39
2022-08-03T07:36:46.170Z,52.95
2022-08-03T07:37:54.132Z,52.26
2022-08-03T07:38:47.144Z,50.59
2022-08-03T07:39:46.112Z,50.85
2022-08-03T07:40:46.505Z,50.09
2022-08-03T07:41:46.096Z,49.90
2022-08-03T07:42:46.083Z,51.35
2022-08-03T07:43:46.095Z,49.95
2022-08-03T07:44:46.081Z,49.95
2022-08-03T07:45:46.042Z,50.81
2022-08-03T07:46:46.065Z,49.62
2022-08-03T07:47:46.167Z,49.92
2022-08-03T07:48:47.039Z,50.02
2022-08-03T07:49:46.007Z,49.52
2022-08-03T07:50:45.995Z,48.32
2022-08-03T07:51:45.985Z,48.49
2022-08-03T07:52:46.113Z,48.30
2022-08-03T07:53:47.846Z,48.57
2022-08-03T07:54:45.986Z,46.90
2022-08-03T07:55:45.940Z,48.20
2022-08-03T07:56:45.931Z,48.37
2022-08-03T07:57:45.916Z,47.66
2022-08-03T07:58:45.911Z,48.05
2022-08-03T07:59:56.609Z,48.15
2022-08-03T08:00:46.912Z,47.47
2022-08-03T08:01:45.987Z,44.52
2022-08-03T08:02:45.868Z,46.97
2022-08-03T08:03:53.346Z,45.32
2022-08-03T08:04:46.866Z,47.76
2022-08-03T08:05:45.872Z,47.34
2022-08-03T08:06:45.820Z,47.03
2022-08-03T08:07:51.024Z,45.18
2022-08-03T08:08:46.823Z,45.28
2022-08-03T08:09:45.789Z,46.56
2022-08-03T08:10:58.329Z,44.96
2022-08-03T08:11:46.765Z,46.04
2022-08-03T08:12:45.752Z,44.91
2022-08-03T08:13:45.774Z,44.64
2022-08-03T08:14:45.894Z,46.80
2022-08-03T08:15:45.726Z,47.09
2022-08-03T08:16:45.734Z,46.78
2022-08-03T08:17:45.703Z,46.48
2022-08-03T08:18:45.704Z,46.68
2022-08-03T08:19:51.244Z,46.36
2022-08-03T08:20:46.679Z,46.53
2022-08-03T08:21:53.561Z,44.77
2022-08-03T08:22:46.648Z,44.62
2022-08-03T08:23:48.046Z,44.51
2022-08-03T08:24:46.633Z,44.53
2022-08-03T08:25:45.616Z,43.05
2022-08-03T08:26:45.610Z,44.45
2022-08-03T08:28:29.370Z,44.43
2022-08-03T08:28:46.583Z,43.43
2022-08-03T08:29:47.717Z,42.94
2022-08-03T08:30:46.563Z,44.02
2022-08-03T08:31:45.568Z,44.60
2022-08-03T08:32:45.568Z,42.91
2022-08-03T08:34:03.711Z,42.62
2022-08-03T08:34:46.517Z,42.41
2022-08-03T08:35:45.514Z,42.60
2022-08-03T08:36:45.502Z,42.41
2022-08-03T08:37:51.117Z,42.70
2022-08-03T08:38:46.502Z,42.21
2022-08-03T08:39:45.484Z,42.11
2022-08-03T08:40:45.458Z,44.17
2022-08-03T08:41:45.837Z,43.77
2022-08-03T08:42:57.899Z,43.88
2022-08-03T08:43:46.453Z,42.31
2022-08-03T08:44:45.415Z,44.24
2022-08-03T08:45:45.404Z,41.41
2022-08-03T08:46:45.392Z,41.78
2022-08-03T08:47:51.044Z,41.29
2022-08-03T08:48:46.395Z,40.70
2022-08-03T08:50:03.834Z,42.95
2022-08-03T08:50:46.356Z,42.17
2022-08-03T08:51:59.603Z,41.27
2022-08-03T08:52:46.327Z,40.39
2022-08-03T08:53:45.330Z,40.29
2022-08-03T08:54:45.312Z,40.58
2022-08-03T08:55:59.755Z,39.70
2022-08-03T08:56:47.132Z,40.09
2022-08-03T08:57:45.279Z,41.44
2022-08-03T08:58:45.267Z,41.72
2022-08-03T08:59:48.726Z,40.25
2022-08-03T09:00:45.270Z,39.18
2022-08-03T09:01:45.234Z,39.67
2022-08-03T09:02:45.223Z,40.45
2022-08-03T09:03:45.215Z,39.08
2022-08-03T09:04:45.222Z,39.96
2022-08-03T09:05:55.764Z,39.67
2022-08-03T09:07:04.416Z,38.69
2022-08-03T09:07:46.179Z,39.49
2022-08-03T09:08:45.158Z,38.51
2022-08-03T09:10:07.540Z,38.40
2022-08-03T09:10:46.194Z,39.86
2022-08-03T09:11:51.753Z,40.25
2022-08-03T09:12:46.117Z,39.37
2022-08-03T09:13:45.114Z,39.57
2022-08-03T09:15:00.795Z,38.89
2022-08-03T09:16:01.324Z,38.42
2022-08-03T09:16:46.100Z,41.05
2022-08-03T09:17:48.942Z,39.10
2022-08-03T09:18:46.055Z,39.47
2022-08-03T09:20:02.844Z,38.30
2022-08-03T09:20:46.033Z,38.01
2022-08-03T09:21:45.025Z,38.69
2022-08-03T09:22:45.015Z,38.01
2022-08-03T09:24:01.424Z,37.62
2022-08-03T09:24:49.015Z,38.14
2022-08-03T09:25:45.981Z,38.45
2022-08-03T09:26:44.969Z,39.74
2022-08-03T09:27:44.961Z,39.92
2022-08-03T09:28:58.111Z,39.61
2022-08-03T09:29:45.964Z,38.04
2022-08-03T09:30:44.932Z,39.12
2022-08-03T09:31:45.436Z,38.81
2022-08-03T09:32:44.905Z,37.81
2022-08-03T09:33:44.933Z,37.89
2022-08-03T09:34:44.885Z,38.57
2022-08-03T09:35:53.678Z,36.11
2022-08-03T09:36:45.987Z,37.19
2022-08-03T09:38:11.160Z,36.11
2022-08-03T09:38:45.843Z,37.57
2022-08-03T09:39:44.861Z,37.77
2022-08-03T09:40:44.821Z,36.99
2022-08-03T09:41:44.811Z,37.37
2022-08-03T09:42:44.810Z,38.04
2022-08-03T09:43:44.818Z,37.35
2022-08-03T09:44:44.779Z,36.49
2022-08-03T09:45:44.774Z,36.29
2022-08-03T09:46:44.761Z,36.88
2022-08-03T09:47:45.750Z,37.65
2022-08-03T09:48:44.767Z,36.47
2022-08-03T09:49:44.734Z,36.84
2022-08-03T09:51:32.400Z,36.78
2022-08-03T09:52:31.352Z,37.54
2022-08-03T09:52:51.839Z,37.43
2022-08-03T09:53:58.628Z,37.23
2022-08-03T09:54:45.676Z,37.71
2022-08-03T09:56:33.784Z,36.74
2022-08-03T09:56:45.652Z,37.04
2022-08-03T09:57:44.650Z,37.04
2022-08-03T09:58:44.635Z,36.92
2022-08-03T09:59:44.655Z,36.24
2022-08-03T10:00:44.653Z,36.43
2022-08-03T10:01:44.651Z,36.14
2022-08-03T10:02:44.594Z,36.24
2022-08-03T10:04:03.372Z,36.16
2022-08-03T10:04:45.612Z,36.35
2022-08-03T10:05:44.563Z,38.30
2022-08-03T10:06:44.572Z,37.60
2022-08-03T10:07:46.071Z,36.72
2022-08-03T10:08:44.534Z,35.75
2022-08-03T10:09:44.545Z,37.50
2022-08-03T10:10:44.509Z,37.41
2022-08-03T10:11:44.541Z,36.61
2022-08-03T10:12:44.482Z,36.00
2022-08-03T10:13:44.477Z,35.53
2022-08-03T10:14:44.471Z,36.04
2022-08-03T10:16:22.447Z,35.86
2022-08-03T10:16:45.666Z,36.65
2022-08-03T10:17:44.431Z,37.33
2022-08-03T10:18:44.429Z,37.15
2022-08-03T10:19:44.448Z,37.52
2022-08-03T10:20:44.498Z,37.04
2022-08-03T10:21:44.397Z,38.09
2022-08-03T10:22:44.387Z,37.60
2022-08-03T10:23:44.405Z,37.29
2022-08-03T10:24:44.358Z,36.32
2022-08-03T10:25:44.352Z,37.27
2022-08-03T10:26:49.880Z,36.98
2022-08-03T10:27:45.353Z,35.83
2022-08-03T10:28:45.468Z,36.14
2022-08-03T10:29:44.342Z,36.06
2022-08-03T10:30:44.299Z,36.96
2022-08-03T10:31:54.697Z,37.45
2022-08-03T10:32:45.277Z,37.62
2022-08-03T10:33:49.502Z,37.52
2022-08-03T10:34:45.296Z,36.84
2022-08-03T10:35:44.255Z,35.86
2022-08-03T10:36:44.234Z,35.67
2022-08-03T10:37:56.885Z,37.33
2022-08-03T10:38:45.211Z,36.76
2022-08-03T10:39:44.231Z,37.52
2022-08-03T10:40:49.616Z,36.84
2022-08-03T10:41:45.182Z,36.25
2022-08-03T10:42:44.192Z,37.70
2022-08-03T10:43:44.168Z,36.33
2022-08-03T10:44:44.179Z,35.65
2022-08-03T10:45:44.152Z,36.45
2022-08-03T10:46:45.401Z,36.74
2022-08-03T10:47:44.119Z,37.13
2022-08-03T10:48:44.111Z,36.45
2022-08-03T10:49:44.172Z,36.33
2022-08-03T10:50:44.087Z,35.86
2022-08-03T10:51:44.075Z,37.81
2022-08-03T10:52:48.914Z,36.25
2022-08-03T10:53:51.528Z,36.35
2022-08-03T10:54:45.069Z,37.63
2022-08-03T10:55:44.035Z,36.96
2022-08-03T10:56:49.593Z,36.35
2022-08-03T10:57:45.723Z,36.06
2022-08-03T10:58:57.602Z,36.16
2022-08-03T10:59:44.994Z,36.45
2022-08-03T11:00:44.064Z,36.24
2022-08-03T11:01:58.697Z,36.14
2022-08-03T11:02:44.958Z,36.33
2022-08-03T11:03:43.954Z,35.94
2022-08-03T11:04:43.952Z,36.04
2022-08-03T11:05:43.960Z,36.55
2022-08-03T11:06:43.922Z,36.16
2022-08-03T11:07:44.506Z,37.10
2022-08-03T11:08:44.916Z,35.85
2022-08-03T11:09:43.907Z,36.22
2022-08-03T11:10:43.873Z,36.12
2022-08-03T11:11:43.891Z,35.75
2022-08-03T11:12:43.851Z,35.96
2022-08-03T11:13:43.868Z,35.47
2022-08-03T11:14:43.843Z,36.65
2022-08-03T11:15:43.826Z,37.62
2022-08-03T11:16:43.812Z,38.20
2022-08-03T11:17:46.832Z,36.04
2022-08-03T11:18:44.793Z,36.43
2022-08-03T11:19:57.298Z,34.97
2022-08-03T11:20:44.773Z,37.41
2022-08-03T11:21:43.779Z,36.43
2022-08-03T11:22:43.777Z,36.14
2022-08-03T11:24:04.514Z,36.22
2022-08-03T11:24:44.731Z,35.85
2022-08-03T11:25:55.125Z,36.74
2022-08-03T11:26:44.708Z,36.25
2022-08-03T11:27:43.728Z,35.96
2022-08-03T11:28:43.691Z,35.65
2022-08-03T11:29:43.706Z,36.24
2022-08-03T11:30:43.668Z,35.75
2022-08-03T11:31:51.916Z,35.65
2022-08-03T11:32:46.740Z,36.04
2022-08-03T11:33:43.643Z,36.51
2022-08-03T11:34:43.653Z,36.80
2022-08-03T11:35:43.625Z,37.00
2022-08-03T11:36:43.609Z,36.41
2022-08-03T11:37:43.620Z,35.33
2022-08-03T11:38:44.626Z,36.30
2022-08-03T11:39:43.579Z,36.20
2022-08-03T11:40:43.568Z,35.05
2022-08-03T11:41:45.299Z,35.75
2022-08-03T11:42:43.544Z,36.55
2022-08-03T11:43:43.556Z,36.04
2022-08-03T11:44:47.667Z,36.94
2022-08-03T11:45:43.540Z,36.92
2022-08-03T11:46:43.497Z,36.82
2022-08-03T11:47:50.329Z,36.04
2022-08-03T11:48:44.486Z,37.60
2022-08-03T11:49:43.552Z,36.14
2022-08-03T11:50:43.461Z,36.45
2022-08-03T11:51:43.459Z,35.67
2022-08-03T11:52:43.438Z,36.18
2022-08-03T11:53:43.450Z,36.18
2022-08-03T11:54:43.419Z,36.10
2022-08-03T11:55:43.403Z,36.29
2022-08-03T11:56:43.390Z,37.83
2022-08-03T11:58:58.315Z,37.13
2022-08-03T11:59:01.960Z,36.37
2022-08-03T11:59:44.376Z,35.88
2022-08-03T12:00:43.363Z,35.96
2022-08-03T12:01:43.350Z,36.16
2022-08-03T12:02:43.912Z,35.98
2022-08-03T12:03:43.451Z,36.18
2022-08-03T12:04:43.311Z,36.49
2022-08-03T12:05:52.026Z,36.18
2022-08-03T12:06:47.359Z,37.05
2022-08-03T12:08:03.734Z,36.74
2022-08-03T12:08:44.273Z,37.04
2022-08-03T12:09:43.285Z,37.52
2022-08-03T12:10:43.254Z,36.35
2022-08-03T12:11:51.065Z,35.57
2022-08-03T12:12:46.579Z,36.84
2022-08-03T12:14:28.865Z,35.86
2022-08-03T12:14:51.322Z,37.70
2022-08-03T12:15:44.201Z,36.72
2022-08-03T12:16:43.191Z,37.12
2022-08-03T12:17:43.177Z,36.32
2022-08-03T12:18:43.165Z,36.12
2022-08-03T12:19:43.180Z,35.93
2022-08-03T12:20:43.150Z,35.73
2022-08-03T12:21:43.131Z,36.41
2022-08-03T12:22:44.128Z,36.10
2022-08-03T12:23:43.114Z,36.30
2022-08-03T12:24:43.128Z,34.74
2022-08-03T12:25:43.089Z,35.71
2022-08-03T12:26:43.105Z,36.98
2022-08-03T12:27:43.096Z,36.98
2022-08-03T12:28:46.868Z,35.81
2022-08-03T12:29:44.054Z,36.51
2022-08-03T12:30:44.042Z,35.46
2022-08-03T12:31:43.056Z,36.25
2022-08-03T12:32:43.025Z,36.08
2022-08-03T12:33:43.011Z,37.05
2022-08-03T12:34:47.073Z,37.45
2022-08-03T12:35:52.312Z,37.07
2022-08-03T12:36:43.986Z,36.19
2022-08-03T12:37:42.966Z,36.29
2022-08-03T12:38:42.957Z,36.11
2022-08-03T12:40:00.488Z,36.99
2022-08-03T12:40:43.936Z,36.90
2022-08-03T12:41:43.202Z,36.68
2022-08-03T12:42:42.918Z,36.68
2022-08-03T12:43:42.910Z,36.88
2022-08-03T12:44:42.905Z,37.17
2022-08-03T12:45:42.882Z,36.39
2022-08-03T12:46:47.754Z,36.29
2022-08-03T12:47:43.862Z,36.58
2022-08-03T12:48:42.849Z,36.88
2022-08-03T12:49:42.963Z,37.85
2022-08-03T12:50:42.834Z,39.80
2022-08-03T12:51:42.822Z,36.39
2022-08-03T12:52:42.813Z,36.99